BAW211 HEAX-LGAV
Flight info
| Callsign | BAW211 |
|---|---|
| Flight time | 1h 29m |
| Altitude | 38000 |
| Route | NOZ L551 ANTAR DCT RIPLI UL995 VARIX |
| Aircraft | A319/M-SDE2E3FGHIJ1RWXY/SB1 |
Departure
| Time | 2026-04-22 22:33 |
|---|---|
| Airport | Alexandria International Airport (HEAX) |
Arrival
| Time | 2026-04-23 00:02 |
|---|---|
| Airport | Athens Eleftherios Venizelos International Airport (LGAV) |
| Time | Latitude | Longitude | Altitude | Speed | Heading |
|---|---|---|---|---|---|
| 2026-04-22 21:48 | 30.93099 | 29.69639 | 168 ft | 0 kts | 38° |
| 2026-04-22 22:23 | 30.93086 | 29.69627 | 169 ft | 4 kts | 40° |
| 2026-04-22 22:23 | 30.93065 | 29.69606 | 166 ft | 4 kts | 39° |
| 2026-04-22 22:24 | 30.93044 | 29.69587 | 166 ft | 4 kts | 34° |
| 2026-04-22 22:24 | 30.93021 | 29.69572 | 166 ft | 4 kts | 18° |
| 2026-04-22 22:24 | 30.93012 | 29.69568 | 166 ft | 0 kts | 10° |
| 2026-04-22 22:28 | 30.93018 | 29.69564 | 166 ft | 1 kts | 323° |
| 2026-04-22 22:28 | 30.93031 | 29.69546 | 168 ft | 5 kts | 312° |
| 2026-04-22 22:28 | 30.93064 | 29.69512 | 167 ft | 8 kts | 320° |
| 2026-04-22 22:28 | 30.93120 | 29.69463 | 167 ft | 12 kts | 325° |
| 2026-04-22 22:29 | 30.93199 | 29.69396 | 168 ft | 16 kts | 323° |
| 2026-04-22 22:29 | 30.93262 | 29.69318 | 168 ft | 14 kts | 283° |
| 2026-04-22 22:29 | 30.93212 | 29.69209 | 168 ft | 18 kts | 232° |
| 2026-04-22 22:29 | 30.93126 | 29.69080 | 167 ft | 22 kts | 232° |
| 2026-04-22 22:30 | 30.93050 | 29.68962 | 166 ft | 18 kts | 234° |
| 2026-04-22 22:30 | 30.92964 | 29.68831 | 165 ft | 23 kts | 233° |
| 2026-04-22 22:30 | 30.92862 | 29.68676 | 162 ft | 26 kts | 234° |
| 2026-04-22 22:30 | 30.92787 | 29.68559 | 169 ft | 0 kts | 232° |
| 2026-04-22 22:31 | 30.92785 | 29.68556 | 169 ft | 2 kts | 232° |
| 2026-04-22 22:31 | 30.92770 | 29.68534 | 172 ft | 5 kts | 232° |
| 2026-04-22 22:31 | 30.92757 | 29.68513 | 175 ft | 3 kts | 232° |
| 2026-04-22 22:32 | 30.92746 | 29.68499 | 177 ft | 2 kts | 226° |
| 2026-04-22 22:32 | 30.92727 | 29.68491 | 178 ft | 5 kts | 189° |
| 2026-04-22 22:32 | 30.92679 | 29.68521 | 177 ft | 12 kts | 143° |
| 2026-04-22 22:32 | 30.92397 | 29.68768 | 172 ft | 103 kts | 143° |
| 2026-04-22 22:33 | 30.91611 | 29.69459 | 499 ft | 155 kts | 141° |
| 2026-04-22 22:33 | 30.90760 | 29.70201 | 1494 ft | 160 kts | 141° |
| 2026-04-22 22:33 | 30.89901 | 29.71137 | 2047 ft | 179 kts | 124° |
| 2026-04-22 22:33 | 30.89584 | 29.72600 | 2458 ft | 205 kts | 78° |
| 2026-04-22 22:34 | 30.90380 | 29.74082 | 2879 ft | 237 kts | 38° |
| 2026-04-22 22:34 | 30.91801 | 29.75294 | 3451 ft | 274 kts | 34° |
| 2026-04-22 22:34 | 30.93444 | 29.76559 | 4324 ft | 290 kts | 29° |
| 2026-04-22 22:34 | 30.95136 | 29.77738 | 5985 ft | 278 kts | 28° |
| 2026-04-22 22:35 | 30.96816 | 29.78891 | 7294 ft | 281 kts | 28° |
| 2026-04-22 22:35 | 30.98498 | 29.80059 | 8424 ft | 288 kts | 28° |
| 2026-04-22 22:35 | 31.00234 | 29.81293 | 9533 ft | 296 kts | 28° |
| 2026-04-22 22:35 | 31.02016 | 29.82583 | 10429 ft | 311 kts | 29° |
| 2026-04-22 22:36 | 31.03927 | 29.83986 | 10957 ft | 336 kts | 30° |
| 2026-04-22 22:36 | 31.05975 | 29.85503 | 11385 ft | 361 kts | 30° |
| 2026-04-22 22:36 | 31.08160 | 29.87134 | 11717 ft | 385 kts | 30° |
| 2026-04-22 22:36 | 31.10483 | 29.88877 | 11956 ft | 407 kts | 31° |
| 2026-04-22 22:37 | 31.12918 | 29.90589 | 12487 ft | 417 kts | 24° |
| 2026-04-22 22:37 | 31.15633 | 29.91796 | 13227 ft | 419 kts | 13° |
| 2026-04-22 22:37 | 31.18520 | 29.92353 | 13982 ft | 421 kts | 1° |
| 2026-04-22 22:37 | 31.21451 | 29.92228 | 14650 ft | 421 kts | 349° |
| 2026-04-22 22:38 | 31.24292 | 29.91419 | 15301 ft | 422 kts | 338° |
| 2026-04-22 22:38 | 31.26924 | 29.89996 | 15944 ft | 422 kts | 329° |
| 2026-04-22 22:38 | 31.29524 | 29.88360 | 16591 ft | 425 kts | 329° |
| 2026-04-22 22:38 | 31.32144 | 29.86713 | 17220 ft | 428 kts | 329° |
| 2026-04-22 22:39 | 31.34755 | 29.85077 | 17820 ft | 431 kts | 329° |
| 2026-04-22 22:39 | 31.37417 | 29.83414 | 18398 ft | 435 kts | 329° |
| 2026-04-22 22:39 | 31.40087 | 29.81746 | 18905 ft | 437 kts | 329° |
| 2026-04-22 22:39 | 31.42745 | 29.80082 | 19427 ft | 439 kts | 329° |
| 2026-04-22 22:40 | 31.45449 | 29.78387 | 19927 ft | 442 kts | 329° |
| 2026-04-22 22:40 | 31.48166 | 29.76686 | 20402 ft | 444 kts | 329° |
| 2026-04-22 22:40 | 31.50904 | 29.74969 | 20853 ft | 446 kts | 329° |
| 2026-04-22 22:40 | 31.53651 | 29.73244 | 21292 ft | 448 kts | 329° |
| 2026-04-22 22:41 | 31.56403 | 29.71513 | 21705 ft | 450 kts | 329° |
| 2026-04-22 22:41 | 31.59173 | 29.69769 | 22098 ft | 452 kts | 329° |
| 2026-04-22 22:41 | 31.61912 | 29.68042 | 22481 ft | 454 kts | 329° |
| 2026-04-22 22:41 | 31.64697 | 29.66284 | 22848 ft | 456 kts | 329° |
| 2026-04-22 22:42 | 31.67500 | 29.64510 | 23216 ft | 458 kts | 329° |
| 2026-04-22 22:42 | 31.70312 | 29.62733 | 23565 ft | 460 kts | 329° |
| 2026-04-22 22:42 | 31.73150 | 29.60943 | 23862 ft | 462 kts | 329° |
| 2026-04-22 22:42 | 31.75984 | 29.59154 | 24152 ft | 463 kts | 329° |
| 2026-04-22 22:43 | 31.78793 | 29.57383 | 24437 ft | 465 kts | 328° |
| 2026-04-22 22:43 | 31.81651 | 29.55577 | 24724 ft | 466 kts | 328° |
| 2026-04-22 22:43 | 31.84513 | 29.53764 | 25152 ft | 464 kts | 328° |
| 2026-04-22 22:43 | 31.87351 | 29.51964 | 25609 ft | 462 kts | 328° |
| 2026-04-22 22:44 | 31.90144 | 29.50192 | 26070 ft | 460 kts | 328° |
| 2026-04-22 22:44 | 31.92958 | 29.48404 | 26551 ft | 458 kts | 328° |
| 2026-04-22 22:44 | 31.95766 | 29.46620 | 27049 ft | 456 kts | 328° |
| 2026-04-22 22:44 | 31.98559 | 29.44845 | 27557 ft | 454 kts | 328° |
| 2026-04-22 22:45 | 32.01335 | 29.43079 | 28094 ft | 452 kts | 327° |
| 2026-04-22 22:45 | 32.04072 | 29.41339 | 28640 ft | 450 kts | 327° |
| 2026-04-22 22:45 | 32.06827 | 29.39590 | 29214 ft | 448 kts | 327° |
| 2026-04-22 22:45 | 32.09571 | 29.37848 | 29802 ft | 446 kts | 327° |
| 2026-04-22 22:46 | 32.12296 | 29.36117 | 30369 ft | 444 kts | 327° |
| 2026-04-22 22:46 | 32.15019 | 29.34383 | 30860 ft | 443 kts | 327° |
| 2026-04-22 22:46 | 32.17733 | 29.32646 | 31366 ft | 441 kts | 326° |
| 2026-04-22 22:46 | 32.20393 | 29.30935 | 31883 ft | 439 kts | 326° |
| 2026-04-22 22:47 | 32.23079 | 29.29208 | 32419 ft | 437 kts | 326° |
| 2026-04-22 22:47 | 32.25750 | 29.27495 | 32971 ft | 435 kts | 326° |
| 2026-04-22 22:47 | 32.28421 | 29.25786 | 33536 ft | 434 kts | 326° |
| 2026-04-22 22:47 | 32.31070 | 29.24090 | 34105 ft | 432 kts | 326° |
| 2026-04-22 22:48 | 32.33703 | 29.22401 | 34610 ft | 430 kts | 326° |
| 2026-04-22 22:48 | 32.36292 | 29.20736 | 35105 ft | 428 kts | 325° |
| 2026-04-22 22:48 | 32.38915 | 29.19047 | 35599 ft | 427 kts | 325° |
| 2026-04-22 22:48 | 32.41531 | 29.17359 | 36081 ft | 427 kts | 325° |
| 2026-04-22 22:49 | 32.44135 | 29.15682 | 36560 ft | 426 kts | 325° |
| 2026-04-22 22:49 | 32.46742 | 29.14006 | 37022 ft | 425 kts | 325° |
| 2026-04-22 22:49 | 32.49314 | 29.12354 | 37477 ft | 424 kts | 325° |
| 2026-04-22 22:49 | 32.51913 | 29.10685 | 37892 ft | 425 kts | 324° |
| 2026-04-22 22:50 | 32.54514 | 29.09009 | 37996 ft | 424 kts | 324° |
| 2026-04-22 22:50 | 32.59693 | 29.05661 | 38005 ft | 423 kts | 324° |
| 2026-04-22 22:51 | 32.64829 | 29.02322 | 38005 ft | 423 kts | 324° |
| 2026-04-22 22:51 | 32.69999 | 28.98968 | 38002 ft | 422 kts | 324° |
| 2026-04-22 22:52 | 32.75157 | 28.95633 | 38015 ft | 422 kts | 324° |
| 2026-04-22 22:52 | 32.80281 | 28.92313 | 38015 ft | 422 kts | 324° |
| 2026-04-22 22:53 | 32.85442 | 28.88961 | 38017 ft | 421 kts | 324° |
| 2026-04-22 22:53 | 32.90584 | 28.85611 | 38012 ft | 421 kts | 324° |
| 2026-04-22 22:54 | 32.95697 | 28.82270 | 38034 ft | 421 kts | 324° |
| 2026-04-22 22:54 | 33.00850 | 28.78908 | 38027 ft | 421 kts | 324° |
| 2026-04-22 22:55 | 33.05966 | 28.75565 | 38022 ft | 421 kts | 324° |
| 2026-04-22 22:55 | 33.13676 | 28.70524 | 38018 ft | 420 kts | 324° |
| 2026-04-22 22:56 | 33.18772 | 28.67178 | 38002 ft | 420 kts | 324° |
| 2026-04-22 22:56 | 33.23905 | 28.63812 | 38038 ft | 420 kts | 324° |
| 2026-04-22 22:57 | 33.29010 | 28.60462 | 38024 ft | 420 kts | 324° |
| 2026-04-22 22:57 | 33.34135 | 28.57087 | 38015 ft | 420 kts | 324° |
| 2026-04-22 22:58 | 33.39257 | 28.53703 | 38007 ft | 420 kts | 324° |
| 2026-04-22 22:58 | 33.44357 | 28.50333 | 38004 ft | 420 kts | 324° |
| 2026-04-22 22:59 | 33.49456 | 28.46970 | 38002 ft | 420 kts | 324° |
| 2026-04-22 22:59 | 33.54579 | 28.43574 | 38024 ft | 420 kts | 324° |
| 2026-04-22 23:00 | 33.59700 | 28.40165 | 38010 ft | 430 kts | 324° |
| 2026-04-22 23:00 | 33.65037 | 28.36603 | 38322 ft | 440 kts | 324° |
| 2026-04-22 23:01 | 33.67725 | 28.34811 | 38523 ft | 444 kts | 324° |
| 2026-04-22 23:01 | 33.70388 | 28.33032 | 39018 ft | 436 kts | 324° |
| 2026-04-22 23:01 | 33.72997 | 28.31307 | 39125 ft | 424 kts | 324° |
| 2026-04-22 23:01 | 33.75577 | 28.29602 | 38762 ft | 422 kts | 324° |
| 2026-04-22 23:02 | 33.78164 | 28.27888 | 38497 ft | 424 kts | 324° |
| 2026-04-22 23:02 | 33.80697 | 28.26173 | 38437 ft | 421 kts | 323° |
| 2026-04-22 23:02 | 33.85614 | 28.22415 | 38243 ft | 416 kts | 320° |
| 2026-04-22 23:03 | 33.88013 | 28.20451 | 38031 ft | 416 kts | 319° |
| 2026-04-22 23:03 | 33.90399 | 28.18481 | 37977 ft | 415 kts | 319° |
| 2026-04-22 23:03 | 33.95168 | 28.14596 | 37989 ft | 417 kts | 320° |
| 2026-04-22 23:04 | 34.00017 | 28.10736 | 37989 ft | 417 kts | 320° |
| 2026-04-22 23:04 | 34.04873 | 28.06888 | 37994 ft | 417 kts | 320° |
| 2026-04-22 23:05 | 34.09696 | 28.03034 | 38020 ft | 417 kts | 320° |
| 2026-04-22 23:05 | 34.14538 | 27.99155 | 38007 ft | 417 kts | 321° |
| 2026-04-22 23:06 | 34.19377 | 27.95276 | 37996 ft | 417 kts | 320° |
| 2026-04-22 23:06 | 34.24213 | 27.91395 | 37997 ft | 417 kts | 321° |
| 2026-04-22 23:07 | 34.29017 | 27.87544 | 37987 ft | 417 kts | 321° |
| 2026-04-22 23:07 | 34.33870 | 27.83641 | 37991 ft | 417 kts | 320° |
| 2026-04-22 23:08 | 34.38706 | 27.79739 | 38012 ft | 417 kts | 321° |
| 2026-04-22 23:08 | 34.43517 | 27.75857 | 37999 ft | 418 kts | 321° |
| 2026-04-22 23:09 | 34.48363 | 27.71949 | 37990 ft | 418 kts | 321° |
| 2026-04-22 23:09 | 34.53203 | 27.68035 | 37977 ft | 417 kts | 321° |
| 2026-04-22 23:10 | 34.58003 | 27.64138 | 37974 ft | 417 kts | 321° |
| 2026-04-22 23:10 | 34.62838 | 27.60218 | 37968 ft | 417 kts | 321° |
| 2026-04-22 23:11 | 34.67666 | 27.56297 | 37987 ft | 418 kts | 321° |
| 2026-04-22 23:11 | 34.72507 | 27.52359 | 37973 ft | 418 kts | 321° |
| 2026-04-22 23:12 | 34.77308 | 27.48442 | 37969 ft | 418 kts | 321° |
| 2026-04-22 23:12 | 34.82142 | 27.44495 | 37977 ft | 419 kts | 321° |
| 2026-04-22 23:13 | 34.86197 | 27.41182 | 37968 ft | 419 kts | 321° |
| 2026-04-22 23:13 | 34.91015 | 27.37243 | 37965 ft | 419 kts | 321° |
| 2026-04-22 23:14 | 34.95864 | 27.33270 | 37991 ft | 419 kts | 321° |
| 2026-04-22 23:14 | 35.00675 | 27.29330 | 37980 ft | 419 kts | 321° |
| 2026-04-22 23:15 | 35.05516 | 27.25347 | 37977 ft | 419 kts | 321° |
| 2026-04-22 23:15 | 35.10359 | 27.21360 | 37959 ft | 419 kts | 321° |
| 2026-04-22 23:16 | 35.15198 | 27.17372 | 37956 ft | 419 kts | 321° |
| 2026-04-22 23:16 | 35.20003 | 27.13401 | 37958 ft | 419 kts | 321° |
| 2026-04-22 23:17 | 35.24838 | 27.09404 | 37953 ft | 418 kts | 321° |
| 2026-04-22 23:17 | 35.29661 | 27.05417 | 37948 ft | 418 kts | 321° |
| 2026-04-22 23:18 | 35.34458 | 27.01447 | 37948 ft | 418 kts | 321° |
| 2026-04-22 23:18 | 35.39289 | 26.97437 | 37945 ft | 418 kts | 321° |
| 2026-04-22 23:19 | 35.44086 | 26.93445 | 37943 ft | 419 kts | 321° |
| 2026-04-22 23:19 | 35.48904 | 26.89424 | 37941 ft | 419 kts | 321° |
| 2026-04-22 23:20 | 35.53731 | 26.85395 | 37955 ft | 419 kts | 321° |
| 2026-04-22 23:20 | 35.58533 | 26.81392 | 37941 ft | 419 kts | 321° |
| 2026-04-22 23:21 | 35.63357 | 26.77368 | 37931 ft | 419 kts | 321° |
| 2026-04-22 23:21 | 35.68186 | 26.73326 | 37932 ft | 419 kts | 321° |
| 2026-04-22 23:22 | 35.73015 | 26.69267 | 37937 ft | 420 kts | 321° |
| 2026-04-22 23:22 | 35.77815 | 26.65222 | 37938 ft | 420 kts | 321° |
| 2026-04-22 23:23 | 35.82646 | 26.61156 | 37962 ft | 420 kts | 321° |
| 2026-04-22 23:23 | 35.87471 | 26.57101 | 37960 ft | 419 kts | 321° |
| 2026-04-22 23:24 | 35.92259 | 26.53057 | 37962 ft | 419 kts | 321° |
| 2026-04-22 23:24 | 35.97050 | 26.49006 | 37962 ft | 418 kts | 321° |
| 2026-04-22 23:25 | 36.01861 | 26.44939 | 37968 ft | 418 kts | 321° |
| 2026-04-22 23:25 | 36.06668 | 26.40865 | 37961 ft | 418 kts | 321° |
| 2026-04-22 23:26 | 36.11433 | 26.36820 | 37962 ft | 415 kts | 321° |
| 2026-04-22 23:26 | 36.16194 | 26.32771 | 37962 ft | 415 kts | 321° |
| 2026-04-22 23:27 | 36.20960 | 26.28707 | 37964 ft | 415 kts | 321° |
| 2026-04-22 23:27 | 36.25683 | 26.24674 | 37966 ft | 415 kts | 320° |
| 2026-04-22 23:28 | 36.30441 | 26.20617 | 37965 ft | 414 kts | 320° |
| 2026-04-22 23:28 | 36.35186 | 26.16565 | 37972 ft | 413 kts | 320° |
| 2026-04-22 23:29 | 36.39889 | 26.12538 | 37980 ft | 412 kts | 320° |
| 2026-04-22 23:29 | 36.44608 | 26.08493 | 37969 ft | 411 kts | 320° |
| 2026-04-22 23:30 | 36.49318 | 26.04447 | 37964 ft | 411 kts | 320° |
| 2026-04-22 23:30 | 36.54029 | 26.00392 | 37957 ft | 410 kts | 320° |
| 2026-04-22 23:31 | 36.58693 | 25.96371 | 37953 ft | 410 kts | 320° |
| 2026-04-22 23:31 | 36.63368 | 25.92329 | 37983 ft | 410 kts | 320° |
| 2026-04-22 23:32 | 36.68055 | 25.88277 | 37967 ft | 409 kts | 320° |
| 2026-04-22 23:32 | 36.72744 | 25.84233 | 37961 ft | 408 kts | 320° |
| 2026-04-22 23:33 | 36.77391 | 25.80212 | 37950 ft | 408 kts | 320° |
| 2026-04-22 23:33 | 36.82053 | 25.76155 | 37944 ft | 408 kts | 319° |
| 2026-04-22 23:34 | 36.86710 | 25.72096 | 37944 ft | 408 kts | 320° |
| 2026-04-22 23:34 | 36.91371 | 25.68036 | 37971 ft | 408 kts | 319° |
| 2026-04-22 23:35 | 36.96001 | 25.63995 | 37960 ft | 407 kts | 319° |
| 2026-04-22 23:35 | 37.00656 | 25.59932 | 37955 ft | 408 kts | 319° |
| 2026-04-22 23:36 | 37.05313 | 25.55863 | 37948 ft | 407 kts | 319° |
| 2026-04-22 23:36 | 37.09931 | 25.51821 | 37943 ft | 407 kts | 319° |
| 2026-04-22 23:37 | 37.14575 | 25.47740 | 37947 ft | 408 kts | 319° |
| 2026-04-22 23:37 | 37.19221 | 25.43650 | 37965 ft | 408 kts | 319° |
| 2026-04-22 23:38 | 37.23858 | 25.39545 | 37959 ft | 406 kts | 316° |
| 2026-04-22 23:38 | 37.27588 | 25.34430 | 37953 ft | 393 kts | 298° |
| 2026-04-22 23:39 | 37.29751 | 25.28245 | 37952 ft | 389 kts | 287° |
| 2026-04-22 23:39 | 37.31480 | 25.21788 | 37943 ft | 389 kts | 287° |
| 2026-04-22 23:40 | 37.33214 | 25.15333 | 37936 ft | 390 kts | 287° |
| 2026-04-22 23:40 | 37.34932 | 25.08913 | 37945 ft | 390 kts | 287° |
| 2026-04-22 23:41 | 37.36661 | 25.02422 | 37944 ft | 390 kts | 287° |
| 2026-04-22 23:41 | 37.38375 | 24.95981 | 37946 ft | 391 kts | 287° |
| 2026-04-22 23:42 | 37.40059 | 24.89653 | 37957 ft | 391 kts | 287° |
| 2026-04-22 23:42 | 37.41781 | 24.83148 | 37952 ft | 391 kts | 287° |
| 2026-04-22 23:43 | 37.43482 | 24.76706 | 37437 ft | 390 kts | 287° |
| 2026-04-22 23:43 | 37.44337 | 24.73455 | 36244 ft | 391 kts | 287° |
| 2026-04-22 23:43 | 37.45194 | 24.70194 | 34813 ft | 395 kts | 287° |
| 2026-04-22 23:44 | 37.46063 | 24.66887 | 33266 ft | 399 kts | 287° |
| 2026-04-22 23:44 | 37.46919 | 24.63635 | 32275 ft | 389 kts | 287° |
| 2026-04-22 23:44 | 37.47761 | 24.60437 | 31269 ft | 381 kts | 287° |
| 2026-04-22 23:44 | 37.48597 | 24.57250 | 30277 ft | 384 kts | 287° |
| 2026-04-22 23:45 | 37.49436 | 24.54043 | 29166 ft | 386 kts | 287° |
| 2026-04-22 23:45 | 37.50277 | 24.50821 | 28032 ft | 387 kts | 287° |
| 2026-04-22 23:45 | 37.51118 | 24.47595 | 26947 ft | 389 kts | 287° |
| 2026-04-22 23:45 | 37.51962 | 24.44349 | 25901 ft | 392 kts | 287° |
| 2026-04-22 23:46 | 37.52805 | 24.41112 | 24871 ft | 396 kts | 287° |
| 2026-04-22 23:46 | 37.53664 | 24.37804 | 23885 ft | 397 kts | 287° |
| 2026-04-22 23:46 | 37.54521 | 24.34513 | 22797 ft | 392 kts | 287° |
| 2026-04-22 23:46 | 37.55267 | 24.31231 | 21695 ft | 386 kts | 281° |
| 2026-04-22 23:47 | 37.55610 | 24.27928 | 20662 ft | 381 kts | 274° |
| 2026-04-22 23:47 | 37.55601 | 24.24589 | 19662 ft | 378 kts | 269° |
| 2026-04-22 23:47 | 37.55531 | 24.21293 | 18704 ft | 374 kts | 270° |
| 2026-04-22 23:47 | 37.55464 | 24.18032 | 17711 ft | 370 kts | 270° |
| 2026-04-22 23:48 | 37.55400 | 24.14809 | 16689 ft | 365 kts | 269° |
| 2026-04-22 23:48 | 37.55336 | 24.11663 | 15724 ft | 360 kts | 269° |
| 2026-04-22 23:48 | 37.55272 | 24.08530 | 14790 ft | 355 kts | 269° |
| 2026-04-22 23:48 | 37.55206 | 24.05431 | 13897 ft | 351 kts | 269° |
| 2026-04-22 23:49 | 37.55138 | 24.02394 | 13106 ft | 336 kts | 269° |
| 2026-04-22 23:49 | 37.55072 | 23.99585 | 12746 ft | 305 kts | 269° |
| 2026-04-22 23:49 | 37.55012 | 23.97036 | 12486 ft | 279 kts | 269° |
| 2026-04-22 23:49 | 37.54955 | 23.94640 | 11879 ft | 269 kts | 269° |
| 2026-04-22 23:50 | 37.54903 | 23.92298 | 11150 ft | 266 kts | 269° |
| 2026-04-22 23:50 | 37.54852 | 23.90016 | 10724 ft | 260 kts | 269° |
| 2026-04-22 23:50 | 37.54801 | 23.87712 | 10673 ft | 264 kts | 269° |
| 2026-04-22 23:50 | 37.54749 | 23.85399 | 10576 ft | 264 kts | 269° |
| 2026-04-22 23:51 | 37.54693 | 23.83084 | 10461 ft | 264 kts | 269° |
| 2026-04-22 23:51 | 37.54635 | 23.80776 | 10346 ft | 263 kts | 269° |
| 2026-04-22 23:51 | 37.54577 | 23.78470 | 10217 ft | 263 kts | 269° |
| 2026-04-22 23:51 | 37.54521 | 23.76197 | 10111 ft | 262 kts | 270° |
| 2026-04-22 23:52 | 37.54609 | 23.73907 | 9980 ft | 261 kts | 282° |
| 2026-04-22 23:52 | 37.55349 | 23.71823 | 9575 ft | 266 kts | 308° |
| 2026-04-22 23:52 | 37.56914 | 23.70558 | 9028 ft | 272 kts | 339° |
| 2026-04-22 23:52 | 37.58808 | 23.70340 | 8313 ft | 279 kts | 3° |
| 2026-04-22 23:53 | 37.60687 | 23.70973 | 7967 ft | 280 kts | 12° |
| 2026-04-22 23:53 | 37.62527 | 23.71637 | 7504 ft | 276 kts | 11° |
| 2026-04-22 23:53 | 37.64384 | 23.72265 | 6781 ft | 276 kts | 11° |
| 2026-04-22 23:53 | 37.66242 | 23.72875 | 6057 ft | 275 kts | 11° |
| 2026-04-22 23:54 | 37.68080 | 23.73477 | 5556 ft | 266 kts | 11° |
| 2026-04-22 23:54 | 37.69806 | 23.74050 | 5383 ft | 246 kts | 11° |
| 2026-04-22 23:54 | 37.71371 | 23.74634 | 5263 ft | 225 kts | 19° |
| 2026-04-22 23:54 | 37.72649 | 23.75626 | 5186 ft | 205 kts | 31° |
| 2026-04-22 23:55 | 37.73744 | 23.76605 | 5091 ft | 182 kts | 31° |
| 2026-04-22 23:55 | 37.74725 | 23.77500 | 4906 ft | 170 kts | 32° |
| 2026-04-22 23:55 | 37.75663 | 23.78387 | 4614 ft | 166 kts | 33° |
| 2026-04-22 23:55 | 37.76560 | 23.79242 | 4345 ft | 161 kts | 32° |
| 2026-04-22 23:56 | 37.77428 | 23.80071 | 4096 ft | 153 kts | 31° |
| 2026-04-22 23:56 | 37.78247 | 23.80854 | 3871 ft | 142 kts | 32° |
| 2026-04-22 23:56 | 37.79001 | 23.81576 | 3651 ft | 129 kts | 33° |
| 2026-04-22 23:56 | 37.79695 | 23.82238 | 3457 ft | 122 kts | 32° |
| 2026-04-22 23:57 | 37.80354 | 23.82891 | 3307 ft | 119 kts | 35° |
| 2026-04-22 23:57 | 37.81004 | 23.83529 | 3160 ft | 118 kts | 33° |
| 2026-04-22 23:57 | 37.81648 | 23.84152 | 3002 ft | 115 kts | 34° |
| 2026-04-22 23:57 | 37.82278 | 23.84755 | 2847 ft | 113 kts | 33° |
| 2026-04-22 23:58 | 37.82894 | 23.85342 | 2704 ft | 111 kts | 34° |
| 2026-04-22 23:58 | 37.83503 | 23.85922 | 2552 ft | 108 kts | 33° |
| 2026-04-22 23:58 | 37.84106 | 23.86494 | 2409 ft | 107 kts | 33° |
| 2026-04-22 23:58 | 37.84702 | 23.87059 | 2257 ft | 107 kts | 34° |
| 2026-04-22 23:59 | 37.85298 | 23.87625 | 2113 ft | 107 kts | 35° |
| 2026-04-22 23:59 | 37.85891 | 23.88187 | 1973 ft | 106 kts | 35° |
| 2026-04-22 23:59 | 37.86473 | 23.88740 | 1825 ft | 105 kts | 36° |
| 2026-04-22 23:59 | 37.87060 | 23.89296 | 1700 ft | 106 kts | 36° |
| 2026-04-23 00:00 | 37.88249 | 23.90414 | 1426 ft | 106 kts | 36° |
| 2026-04-23 00:00 | 37.88641 | 23.90791 | 1319 ft | 107 kts | 37° |
| 2026-04-23 00:00 | 37.89418 | 23.91555 | 1078 ft | 106 kts | 36° |
| 2026-04-23 00:01 | 37.90003 | 23.92105 | 904 ft | 107 kts | 35° |
| 2026-04-23 00:01 | 37.90589 | 23.92660 | 790 ft | 105 kts | 39° |
| 2026-04-23 00:01 | 37.91176 | 23.93211 | 669 ft | 105 kts | 38° |
| 2026-04-23 00:01 | 37.91751 | 23.93766 | 509 ft | 105 kts | 37° |
| 2026-04-23 00:02 | 37.92344 | 23.94322 | 385 ft | 105 kts | 36° |
| 2026-04-23 00:02 | 37.92920 | 23.94871 | 290 ft | 103 kts | 35° |
| 2026-04-23 00:02 | 37.93446 | 23.95367 | 286 ft | 77 kts | 36° |
| 2026-04-23 00:02 | 37.93775 | 23.95668 | 278 ft | 39 kts | 25° |
| 2026-04-23 00:03 | 37.94009 | 23.95731 | 277 ft | 11 kts | 355° |
| 2026-04-23 00:03 | 37.94013 | 23.95730 | 280 ft | 0 kts | 351° |
| 2026-04-23 00:03 | 37.94025 | 23.95723 | 279 ft | 4 kts | 329° |
| 2026-04-23 00:03 | 37.94037 | 23.95664 | 277 ft | 10 kts | 258° |
| 2026-04-23 00:04 | 37.93975 | 23.95588 | 278 ft | 15 kts | 216° |
| 2026-04-23 00:04 | 37.93878 | 23.95496 | 281 ft | 18 kts | 217° |
| 2026-04-23 00:04 | 37.93789 | 23.95411 | 281 ft | 17 kts | 217° |
| 2026-04-23 00:04 | 37.93698 | 23.95324 | 281 ft | 17 kts | 216° |
| 2026-04-23 00:05 | 37.93601 | 23.95233 | 282 ft | 16 kts | 216° |
| 2026-04-23 00:05 | 37.93499 | 23.95135 | 285 ft | 21 kts | 217° |
| 2026-04-23 00:05 | 37.93388 | 23.95029 | 287 ft | 19 kts | 217° |
| 2026-04-23 00:05 | 37.93271 | 23.94919 | 285 ft | 21 kts | 217° |
| 2026-04-23 00:06 | 37.93146 | 23.94801 | 289 ft | 21 kts | 217° |
| 2026-04-23 00:06 | 37.93063 | 23.94711 | 287 ft | 13 kts | 245° |
| 2026-04-23 00:06 | 37.93102 | 23.94596 | 291 ft | 17 kts | 306° |
| 2026-04-23 00:06 | 37.93177 | 23.94473 | 290 ft | 14 kts | 308° |
| 2026-04-23 00:07 | 37.93207 | 23.94364 | 290 ft | 11 kts | 245° |
| 2026-04-23 00:07 | 37.93167 | 23.94315 | 287 ft | 0 kts | 212° |